createdAt,value
2023-06-10T00:00:52.324Z,189.59
2023-06-10T00:04:02.175Z,189.54
2023-06-10T00:07:10.115Z,187.69
2023-06-10T00:10:17.369Z,193.83
2023-06-10T00:13:23.273Z,196.39
2023-06-10T00:16:30.683Z,234.03
2023-06-10T00:19:43.120Z,263.37
2023-06-10T00:22:50.317Z,258.57
2023-06-10T00:25:56.412Z,242.96
2023-06-10T00:29:03.475Z,234.64
2023-06-10T00:32:11.125Z,229.39
2023-06-10T00:35:20.738Z,216.62
2023-06-10T00:38:26.974Z,209.00
2023-06-10T00:41:35.307Z,208.55
2023-06-10T00:44:41.333Z,209.12
2023-06-10T00:47:48.987Z,208.72
2023-06-10T00:50:58.189Z,205.19
2023-06-10T00:54:05.691Z,207.68
2023-06-10T00:57:12.009Z,203.17
2023-06-10T01:00:20.293Z,204.87
2023-06-10T01:03:26.465Z,207.48
2023-06-10T01:06:53.990Z,202.07
2023-06-10T01:10:09.990Z,201.25
2023-06-10T01:13:19.398Z,204.74
2023-06-10T01:16:26.949Z,202.24
2023-06-10T01:19:35.431Z,203.04
2023-06-10T01:22:44.027Z,203.57
2023-06-10T01:25:57.735Z,200.68
2023-06-10T01:29:14.721Z,198.18
2023-06-10T01:32:33.234Z,197.57
2023-06-10T01:35:42.805Z,201.39
2023-06-10T01:38:57.091Z,199.73
2023-06-10T01:42:04.206Z,199.96
2023-06-10T01:45:12.577Z,197.88
2023-06-10T01:48:18.537Z,193.68
2023-06-10T01:51:25.437Z,192.71
2023-06-10T01:54:35.936Z,184.23
2023-06-10T01:57:42.832Z,179.50
2023-06-10T02:00:48.965Z,180.52
2023-06-10T02:03:55.932Z,180.36
2023-06-10T02:07:05.658Z,177.31
2023-06-10T02:10:15.510Z,181.68
2023-06-10T02:13:21.629Z,184.65
2023-06-10T02:16:32.762Z,178.97
2023-06-10T02:19:39.199Z,179.41
2023-06-10T02:22:47.196Z,175.76
2023-06-10T02:25:55.725Z,182.86
2023-06-10T02:29:05.158Z,183.27
2023-06-10T02:32:12.653Z,182.07
2023-06-10T02:35:25.481Z,186.81
2023-06-10T02:38:32.567Z,190.75
2023-06-10T02:41:43.456Z,191.20
2023-06-10T02:44:49.617Z,194.46
2023-06-10T02:48:03.743Z,201.47
2023-06-10T02:51:11.366Z,205.47
2023-06-10T02:54:22.101Z,209.82
2023-06-10T02:57:30.795Z,211.46
2023-06-10T03:00:38.353Z,219.64
2023-06-10T03:03:45.095Z,222.81
2023-06-10T03:06:55.200Z,213.40
2023-06-10T03:10:08.563Z,224.38
2023-06-10T03:13:21.271Z,220.04
2023-06-10T03:16:28.857Z,218.95
2023-06-10T03:19:36.236Z,217.87
2023-06-10T03:22:42.294Z,216.12
2023-06-10T03:25:50.966Z,216.80
2023-06-10T03:29:01.925Z,217.30
2023-06-10T03:32:10.681Z,211.94
2023-06-10T03:35:18.999Z,213.54
2023-06-10T03:38:25.826Z,201.98
2023-06-10T03:41:33.665Z,203.36
2023-06-10T03:44:44.755Z,206.50
2023-06-10T03:47:50.890Z,206.06
2023-06-10T03:51:02.409Z,198.83
2023-06-10T03:54:08.972Z,202.88
2023-06-10T03:57:16.085Z,202.23
2023-06-10T04:00:25.917Z,203.07
2023-06-10T04:03:33.152Z,199.11
2023-06-10T04:06:39.753Z,199.65
2023-06-10T04:09:48.160Z,198.68
2023-06-10T04:12:54.481Z,195.89
2023-06-10T04:16:05.343Z,193.86
2023-06-10T04:19:12.007Z,198.25
2023-06-10T04:22:19.348Z,195.10
2023-06-10T04:25:25.811Z,194.18
2023-06-10T04:28:32.899Z,190.98
2023-06-10T04:31:41.774Z,192.43
2023-06-10T04:34:49.989Z,195.39
2023-06-10T04:37:58.233Z,191.32
2023-06-10T04:41:05.559Z,189.87
2023-06-10T04:44:15.138Z,187.62
2023-06-10T04:47:25.392Z,183.96
2023-06-10T04:50:33.589Z,183.13
2023-06-10T04:53:40.601Z,177.48
2023-06-10T04:56:46.637Z,175.96
2023-06-10T04:59:53.477Z,167.77
2023-06-10T05:03:02.462Z,165.84
2023-06-10T05:06:09.732Z,165.05
2023-06-10T05:09:17.084Z,163.78
2023-06-10T05:12:24.005Z,161.44
2023-06-10T05:15:33.850Z,163.74
2023-06-10T05:18:43.197Z,155.58
2023-06-10T05:21:49.745Z,154.74
2023-06-10T05:24:56.632Z,155.79
2023-06-10T05:28:02.630Z,149.80
2023-06-10T05:31:10.280Z,151.79
2023-06-10T05:34:19.482Z,142.95
2023-06-10T05:37:26.859Z,140.10
2023-06-10T05:40:33.121Z,141.58
2023-06-10T05:43:39.851Z,133.83
2023-06-10T05:46:46.027Z,126.56
2023-06-10T05:49:55.604Z,123.86
2023-06-10T05:53:01.574Z,117.34
2023-06-10T05:56:15.904Z,123.60
2023-06-10T05:59:24.125Z,123.90
2023-06-10T06:02:31.104Z,119.92
2023-06-10T06:05:40.948Z,118.32
2023-06-10T06:08:47.745Z,121.33
2023-06-10T06:11:53.722Z,118.30
2023-06-10T06:15:00.636Z,122.32
2023-06-10T06:18:06.909Z,123.26
2023-06-10T06:21:16.341Z,120.35
2023-06-10T06:24:22.513Z,117.67
2023-06-10T06:27:29.507Z,112.62
2023-06-10T06:30:37.654Z,115.53
2023-06-10T06:33:44.367Z,116.36
2023-06-10T06:36:52.965Z,119.28
2023-06-10T06:40:04.481Z,121.85
2023-06-10T06:43:10.901Z,119.13
2023-06-10T06:46:18.092Z,121.17
2023-06-10T06:49:24.923Z,121.44
2023-06-10T06:52:34.481Z,119.40
2023-06-10T06:55:40.727Z,118.76
2023-06-10T06:58:48.060Z,127.10
2023-06-10T07:01:55.739Z,130.28
2023-06-10T07:05:03.236Z,129.40
2023-06-10T07:08:13.446Z,129.17
2023-06-10T07:11:20.377Z,126.55
2023-06-10T07:14:36.088Z,123.61
2023-06-10T07:17:43.677Z,123.42
2023-06-10T07:20:50.857Z,121.36
2023-06-10T07:24:03.952Z,123.96
2023-06-10T07:27:11.748Z,127.10
2023-06-10T07:30:18.720Z,126.66
2023-06-10T07:33:24.804Z,126.96
2023-06-10T07:36:31.714Z,123.15
2023-06-10T07:39:40.442Z,127.23
2023-06-10T07:42:47.552Z,133.43
2023-06-10T07:45:56.658Z,139.48
2023-06-10T07:49:07.962Z,130.11
2023-06-10T07:52:14.042Z,130.24
2023-06-10T07:55:23.777Z,120.33
2023-06-10T07:58:29.947Z,124.27
2023-06-10T08:01:37.518Z,119.76
2023-06-10T08:04:43.666Z,120.41
2023-06-10T08:07:50.749Z,122.47
2023-06-10T08:10:59.532Z,123.88
2023-06-10T08:14:06.445Z,123.58
2023-06-10T08:17:12.613Z,120.77
2023-06-10T08:20:19.510Z,118.86
2023-06-10T08:23:25.784Z,120.23
2023-06-10T08:26:35.513Z,115.13
2023-06-10T08:29:41.778Z,113.11
2023-06-10T08:32:48.828Z,111.98
2023-06-10T08:35:54.820Z,115.03
2023-06-10T08:39:01.735Z,112.05
2023-06-10T08:42:26.585Z,112.63
2023-06-10T08:45:37.510Z,110.82
2023-06-10T08:48:48.742Z,111.28
2023-06-10T08:52:02.227Z,108.90
2023-06-10T08:55:16.237Z,107.65
2023-06-10T08:58:26.235Z,114.47
2023-06-10T09:01:34.207Z,113.47
2023-06-10T09:04:42.326Z,143.48
2023-06-10T09:07:51.921Z,110.66
2023-06-10T09:10:59.217Z,112.15
2023-06-10T09:14:07.987Z,109.58
2023-06-10T09:17:15.559Z,109.48
2023-06-10T09:20:21.956Z,106.53
2023-06-10T09:23:30.056Z,109.93
2023-06-10T09:26:36.180Z,110.40
2023-06-10T09:29:59.270Z,108.25
2023-06-10T09:33:13.576Z,114.92
2023-06-10T09:36:33.470Z,106.92
2023-06-10T09:39:42.232Z,102.66
2023-06-10T09:42:55.125Z,99.91
2023-06-10T09:46:03.829Z,99.76
2023-06-10T09:49:10.696Z,95.62
2023-06-10T09:52:16.918Z,96.79
2023-06-10T09:55:23.728Z,99.39
2023-06-10T09:58:43.662Z,92.12
2023-06-10T10:02:02.013Z,91.52
2023-06-10T10:05:09.355Z,90.07
2023-06-10T10:08:16.817Z,91.34
2023-06-10T10:11:25.404Z,100.39
2023-06-10T10:14:37.364Z,103.15
2023-06-10T10:17:55.970Z,104.31
2023-06-10T10:21:13.416Z,105.21
2023-06-10T10:24:25.929Z,102.45
2023-06-10T10:27:44.884Z,99.22
2023-06-10T10:30:56.937Z,97.77
2023-06-10T10:34:13.332Z,110.19
2023-06-10T10:37:20.156Z,103.74
2023-06-10T10:40:30.768Z,95.97
2023-06-10T10:43:38.752Z,83.63
2023-06-10T10:46:52.710Z,82.70
2023-06-10T10:50:05.426Z,78.46
2023-06-10T10:53:12.956Z,76.66
2023-06-10T10:56:22.712Z,79.32
2023-06-10T10:59:29.979Z,74.81
2023-06-10T11:02:44.863Z,69.40
2023-06-10T11:05:54.705Z,62.00
2023-06-10T11:09:04.605Z,59.88
2023-06-10T11:12:13.516Z,55.62
2023-06-10T11:15:24.581Z,58.00
2023-06-10T11:18:34.759Z,57.94
2023-06-10T11:22:10.812Z,60.23
2023-06-10T11:25:19.024Z,59.31
2023-06-10T11:28:32.881Z,55.70
2023-06-10T11:31:50.442Z,57.33
2023-06-10T11:34:57.880Z,54.67
2023-06-10T11:38:07.296Z,60.52
2023-06-10T11:41:14.313Z,57.25
2023-06-10T11:44:21.163Z,61.50
2023-06-10T11:47:28.181Z,58.65
2023-06-10T11:50:37.046Z,58.48
2023-06-10T11:53:50.032Z,57.64
2023-06-10T11:57:05.401Z,62.37
2023-06-10T12:00:13.320Z,58.73
2023-06-10T12:03:22.246Z,58.66
2023-06-10T12:06:28.690Z,60.30
2023-06-10T12:09:38.326Z,57.52
2023-06-10T12:12:44.384Z,58.53
2023-06-10T12:15:51.887Z,58.36
2023-06-10T12:19:07.996Z,55.43
2023-06-10T12:22:14.977Z,57.02
2023-06-10T12:25:29.976Z,56.47
2023-06-10T12:28:36.740Z,56.67
2023-06-10T12:32:06.254Z,59.62
2023-06-10T12:35:16.166Z,57.35
2023-06-10T12:38:28.463Z,54.67
2023-06-10T12:41:42.135Z,54.49
2023-06-10T12:44:48.280Z,51.00
2023-06-10T12:47:55.088Z,51.84
2023-06-10T12:51:05.336Z,53.76
2023-06-10T12:54:12.111Z,53.50
2023-06-10T12:57:29.118Z,51.35
2023-06-10T13:00:36.602Z,58.41
2023-06-10T13:03:43.298Z,57.76
2023-06-10T13:06:50.485Z,57.53
2023-06-10T13:09:56.546Z,58.61
2023-06-10T13:13:07.286Z,58.87
2023-06-10T13:16:21.881Z,60.48
2023-06-10T13:19:36.379Z,60.04
2023-06-10T13:22:42.452Z,62.78
2023-06-10T13:25:49.653Z,59.43
2023-06-10T13:28:58.381Z,62.85
2023-06-10T13:32:05.107Z,60.68
2023-06-10T13:35:12.446Z,62.84
2023-06-10T13:38:19.606Z,61.77
2023-06-10T13:41:26.094Z,63.36
2023-06-10T13:44:37.684Z,63.13
2023-06-10T13:47:44.169Z,60.95
2023-06-10T13:50:51.346Z,61.90
2023-06-10T13:53:57.301Z,67.68
2023-06-10T13:57:04.120Z,66.35
2023-06-10T14:00:14.935Z,67.53
2023-06-10T14:03:22.670Z,64.08
2023-06-10T14:06:28.815Z,63.70
2023-06-10T14:09:35.620Z,70.16
2023-06-10T14:12:41.873Z,67.82
2023-06-10T14:15:51.367Z,66.28
2023-06-10T14:18:57.635Z,64.22
2023-06-10T14:22:06.615Z,64.43
2023-06-10T14:25:14.463Z,63.32
2023-06-10T14:28:22.662Z,64.08
2023-06-10T14:31:31.743Z,60.88
2023-06-10T14:34:40.571Z,66.55
2023-06-10T14:37:46.640Z,64.96
2023-06-10T14:40:53.902Z,64.84
2023-06-10T14:43:59.841Z,61.63
2023-06-10T14:47:10.089Z,45.64
2023-06-10T14:50:16.162Z,41.20
2023-06-10T14:53:23.123Z,41.77
2023-06-10T14:56:30.944Z,46.65
2023-06-10T14:59:38.385Z,53.72
2023-06-10T15:02:48.218Z,52.06
2023-06-10T15:05:54.969Z,50.85
2023-06-10T15:09:00.854Z,49.86
2023-06-10T15:12:08.600Z,51.30
2023-06-10T15:15:14.697Z,51.74
2023-06-10T15:18:24.584Z,55.67
2023-06-10T15:21:30.949Z,59.58
2023-06-10T15:24:37.849Z,64.41
2023-06-10T15:27:43.933Z,71.52
2023-06-10T15:30:55.170Z,75.58
2023-06-10T15:34:04.186Z,80.46
2023-06-10T15:37:11.085Z,79.65
2023-06-10T15:40:17.279Z,83.11
2023-06-10T15:43:24.059Z,86.10
2023-06-10T15:46:31.035Z,95.59
2023-06-10T15:49:40.640Z,96.32
2023-06-10T15:52:46.655Z,91.88
2023-06-10T15:55:53.468Z,94.08
2023-06-10T15:58:59.728Z,98.96
2023-06-10T16:02:07.426Z,107.80
2023-06-10T16:05:16.057Z,105.86
2023-06-10T16:08:22.871Z,109.73
2023-06-10T16:11:28.853Z,107.39
2023-06-10T16:14:36.394Z,110.42
2023-06-10T16:17:48.378Z,112.11
2023-06-10T16:20:57.947Z,112.68
2023-06-10T16:24:05.186Z,115.25
2023-06-10T16:27:12.075Z,116.31
2023-06-10T16:30:18.300Z,118.27
2023-06-10T16:33:25.132Z,115.03
2023-06-10T16:36:33.888Z,121.22
2023-06-10T16:39:40.904Z,121.01
2023-06-10T16:42:46.935Z,127.63
2023-06-10T16:45:54.780Z,125.18
2023-06-10T16:49:01.030Z,126.38
2023-06-10T16:52:11.469Z,126.22
2023-06-10T16:55:17.473Z,122.96
2023-06-10T16:58:24.483Z,125.12
2023-06-10T17:01:30.605Z,118.10
2023-06-10T17:04:37.636Z,122.97
2023-06-10T17:07:46.860Z,122.93
2023-06-10T17:10:53.794Z,122.46
2023-06-10T17:13:59.784Z,127.19
2023-06-10T17:17:07.492Z,133.43
2023-06-10T17:20:15.374Z,134.01
2023-06-10T17:23:24.902Z,135.68
2023-06-10T17:26:31.063Z,132.40
2023-06-10T17:29:38.105Z,123.50
2023-06-10T17:32:45.265Z,124.64
2023-06-10T17:35:52.889Z,128.55
2023-06-10T17:39:01.681Z,130.44
2023-06-10T17:42:09.909Z,124.90
2023-06-10T17:45:17.305Z,126.24
2023-06-10T17:48:24.316Z,110.26
2023-06-10T17:51:30.391Z,98.35
2023-06-10T17:54:39.883Z,91.03
2023-06-10T17:57:45.864Z,81.37
2023-06-10T18:00:52.788Z,78.72
2023-06-10T18:03:59.756Z,72.84
2023-06-10T18:07:09.262Z,63.46
2023-06-10T18:10:18.181Z,60.05
2023-06-10T18:13:25.069Z,58.85
2023-06-10T18:16:31.243Z,55.14
2023-06-10T18:19:38.226Z,55.01
2023-06-10T18:22:44.353Z,52.75
2023-06-10T18:25:54.788Z,52.71
2023-06-10T18:29:00.701Z,49.29
2023-06-10T18:32:09.116Z,51.38
2023-06-10T18:35:15.290Z,48.53
2023-06-10T18:38:23.276Z,51.01
2023-06-10T18:41:32.651Z,51.11
2023-06-10T18:44:39.710Z,48.29
2023-06-10T18:47:57.424Z,51.10
2023-06-10T18:51:08.652Z,54.42
2023-06-10T18:54:14.939Z,65.15
2023-06-10T18:57:25.515Z,77.69
2023-06-10T19:00:31.548Z,78.77
2023-06-10T19:03:38.564Z,82.52
2023-06-10T19:06:44.793Z,80.74
2023-06-10T19:09:51.617Z,78.74
2023-06-10T19:13:00.187Z,80.31
2023-06-10T19:16:08.641Z,76.06
2023-06-10T19:19:14.673Z,69.62
2023-06-10T19:22:21.968Z,69.65
2023-06-10T19:25:28.044Z,70.25
2023-06-10T19:28:37.472Z,64.37
2023-06-10T19:31:43.797Z,61.14
2023-06-10T19:34:50.761Z,60.64
2023-06-10T19:37:56.937Z,61.26
2023-06-10T19:41:05.504Z,60.57
2023-06-10T19:44:14.267Z,59.86
2023-06-10T19:47:21.173Z,57.56
2023-06-10T19:50:27.705Z,57.99
2023-06-10T19:53:34.586Z,59.22
2023-06-10T19:56:40.803Z,58.88
2023-06-10T19:59:51.976Z,57.59
2023-06-10T20:02:58.223Z,57.14
2023-06-10T20:06:05.190Z,57.56
2023-06-10T20:09:11.604Z,60.09
2023-06-10T20:12:18.528Z,58.51
2023-06-10T20:15:27.153Z,57.91
2023-06-10T20:18:34.100Z,59.40
2023-06-10T20:21:40.395Z,61.41
2023-06-10T20:24:47.415Z,61.62
2023-06-10T20:27:53.745Z,66.32
2023-06-10T20:31:05.044Z,61.26
2023-06-10T20:34:11.169Z,61.48
2023-06-10T20:37:17.976Z,65.87
2023-06-10T20:40:23.956Z,66.49
2023-06-10T20:43:30.819Z,65.57
2023-06-10T20:46:39.570Z,69.01
2023-06-10T20:49:46.508Z,69.16
2023-06-10T20:52:52.562Z,70.08
2023-06-10T20:55:59.801Z,72.03
2023-06-10T20:59:09.037Z,75.86
2023-06-10T21:02:18.728Z,73.84
2023-06-10T21:05:30.128Z,76.31
2023-06-10T21:08:37.022Z,76.96
2023-06-10T21:11:43.338Z,75.82
2023-06-10T21:14:50.182Z,77.46
2023-06-10T21:18:05.330Z,76.42
2023-06-10T21:21:14.530Z,76.60
2023-06-10T21:24:20.856Z,77.37
2023-06-10T21:27:28.865Z,77.72
2023-06-10T21:30:36.385Z,80.66
2023-06-10T21:33:46.656Z,82.44
2023-06-10T21:36:52.814Z,80.29
2023-06-10T21:39:59.636Z,81.99
2023-06-10T21:43:06.193Z,81.28
2023-06-10T21:46:13.272Z,82.57
2023-06-10T21:49:22.210Z,81.07
2023-06-10T21:52:29.721Z,84.84
2023-06-10T21:55:35.756Z,82.12
2023-06-10T21:58:49.143Z,81.62
2023-06-10T22:01:55.485Z,85.75
2023-06-10T22:05:05.003Z,87.78
2023-06-10T22:08:11.007Z,88.41
2023-06-10T22:11:17.938Z,91.09
2023-06-10T22:14:24.075Z,92.64
2023-06-10T22:17:30.918Z,88.85
2023-06-10T22:20:39.612Z,89.46
2023-06-10T22:23:46.625Z,89.08
2023-06-10T22:26:53.956Z,91.20
2023-06-10T22:30:02.234Z,91.24
2023-06-10T22:33:10.280Z,92.53
2023-06-10T22:36:19.702Z,86.24
2023-06-10T22:39:25.585Z,88.87
2023-06-10T22:42:32.367Z,91.22
2023-06-10T22:45:38.346Z,90.27
2023-06-10T22:48:45.333Z,90.81
2023-06-10T22:51:54.089Z,90.85
2023-06-10T22:55:00.831Z,92.46
2023-06-10T22:58:06.781Z,92.81
2023-06-10T23:01:13.513Z,93.60
2023-06-10T23:04:19.633Z,92.33
2023-06-10T23:07:29.064Z,94.89
2023-06-10T23:10:35.082Z,95.56
2023-06-10T23:13:41.821Z,99.40
2023-06-10T23:16:49.079Z,96.76
2023-06-10T23:19:58.190Z,99.15
2023-06-10T23:23:08.495Z,97.08
2023-06-10T23:26:15.590Z,95.71
2023-06-10T23:29:23.308Z,97.65
2023-06-10T23:32:30.266Z,99.41
2023-06-10T23:35:36.244Z,97.35
2023-06-10T23:38:47.217Z,96.75
2023-06-10T23:41:53.400Z,97.13
2023-06-10T23:45:00.286Z,99.52
2023-06-10T23:48:06.962Z,97.63
2023-06-10T23:51:15.856Z,97.88
2023-06-10T23:54:24.896Z,100.00
2023-06-10T23:57:31.724Z,96.97
